Time;durP1;ratioP1;P1;durP2;ratioP2;P2;SDS_P1;SDS_P2;PMS_P1;PMS_P2;Temp;Humidity;BMP_temperature;BMP_pressure;BME280_temperature;BME280_humidity;BME280_pressure;Samples;Min_cycle;Max_cycle;Signal;HPM_P1;HPM_P2
2024/01/12 05:03:54;;;;;;;1.00;0.93;;;-0.70;97.30;;;;;;4955813;28;20462;-92
2024/01/12 05:13:13;;;;;;;1.10;1.00;;;-0.80;97.30;;;;;;4956326;28;20410;-93
2024/01/12 05:16:14;;;;;;;4.53;2.07;;;-0.80;97.30;;;;;;4947879;28;20431;-92
2024/01/12 05:18:42;;;;;;;2.10;2.00;;;-0.70;97.30;;;;;;4940796;28;20461;-92
2024/01/12 05:25:04;;;;;;;1.77;1.67;;;-0.70;97.30;;;;;;4866283;29;20506;-92
2024/01/12 05:27:33;;;;;;;3.70;1.40;;;-0.70;97.30;;;;;;4844425;29;20481;-92
2024/01/12 05:32:47;;;;;;;1.10;1.00;;;-0.80;97.30;;;;;;4961346;23;20497;-67
2024/01/12 05:35:13;;;;;;;4.07;3.83;;;-0.80;97.30;;;;;;4964501;28;20458;-68
2024/01/12 05:37:38;;;;;;;1.20;1.07;;;-0.80;97.30;;;;;;4950528;28;20187;-66
2024/01/12 05:40:04;;;;;;;6.87;3.87;;;-0.80;97.30;;;;;;4958716;28;20191;-66
2024/01/12 05:42:30;;;;;;;1.80;1.70;;;-0.80;97.30;;;;;;4932629;29;20180;-67
2024/01/12 05:44:55;;;;;;;5.30;1.37;;;-0.80;97.30;;;;;;4930276;29;20482;-67
2024/01/12 05:47:21;;;;;;;1.63;1.53;;;-0.80;97.30;;;;;;4930959;29;20176;-68
2024/01/12 05:49:46;;;;;;;1.80;1.63;;;-0.70;97.30;;;;;;4932061;29;20226;-67
2024/01/12 05:52:12;;;;;;;1.53;1.53;;;-0.70;97.30;;;;;;4935335;29;20727;-67
2024/01/12 05:54:37;;;;;;;5.37;2.30;;;-0.70;97.30;;;;;;4932390;29;20726;-68
2024/01/12 05:57:04;;;;;;;0.90;0.80;;;-0.70;97.30;;;;;;4931149;29;20259;-68
2024/01/12 05:59:30;;;;;;;1.20;1.00;;;-0.60;97.30;;;;;;4939801;29;20227;-68
2024/01/12 06:01:56;;;;;;;2.73;2.53;;;-0.60;97.30;;;;;;4940321;28;20435;-68
2024/01/12 06:04:21;;;;;;;1.23;1.13;;;-0.70;97.30;;;;;;4931369;29;20224;-68
2024/01/12 06:06:48;;;;;;;0.90;0.80;;;-0.60;97.30;;;;;;4932314;29;20188;-67
2024/01/12 06:09:13;;;;;;;1.77;1.67;;;-0.60;97.30;;;;;;4958804;23;20238;-88
2024/01/12 06:11:44;;;;;;;4.43;1.37;;;-0.60;97.30;;;;;;4973397;28;20549;-88
2024/01/12 06:14:10;;;;;;;1.50;1.40;;;-0.60;97.30;;;;;;4984326;28;20462;-88
2024/01/12 06:16:35;;;;;;;1.47;1.37;;;-0.60;97.30;;;;;;4972861;28;20519;-88
2024/01/12 06:19:01;;;;;;;2.33;1.90;;;-0.60;97.30;;;;;;4983376;28;20453;-88
2024/01/12 06:21:27;;;;;;;2.33;2.13;;;-0.60;97.30;;;;;;4989871;28;20186;-88
2024/01/12 06:23:52;;;;;;;1.20;1.10;;;-0.60;97.30;;;;;;4978978;28;20190;-88
2024/01/12 06:26:18;;;;;;;1.67;1.63;;;-0.60;97.30;;;;;;4971407;28;20600;-88
2024/01/12 06:28:43;;;;;;;2.90;1.93;;;-0.60;97.30;;;;;;4980148;28;20301;-88
2024/01/12 06:31:09;;;;;;;10.40;2.37;;;-0.60;97.30;;;;;;4972423;28;20273;-88
2024/01/12 06:33:34;;;;;;;14.57;1.53;;;-0.60;97.30;;;;;;4972514;28;20182;-88
2024/01/12 06:36:03;;;;;;;2.13;2.00;;;-0.50;97.30;;;;;;4973606;28;20241;-88
2024/01/12 06:38:29;;;;;;;1.60;1.50;;;-0.50;97.30;;;;;;4979792;28;20195;-88
2024/01/12 06:40:55;;;;;;;14.73;3.43;;;-0.50;97.30;;;;;;4983483;28;20431;-88
2024/01/12 06:43:20;;;;;;;2.40;2.10;;;-0.50;97.30;;;;;;4986120;28;20422;-88
2024/01/12 06:45:46;;;;;;;1.03;0.93;;;-0.50;97.30;;;;;;4981655;28;20178;-87
2024/01/12 06:48:12;;;;;;;1.80;1.70;;;-0.60;97.30;;;;;;4976314;28;20174;-89
2024/01/12 06:50:37;;;;;;;7.47;2.03;;;-0.50;97.30;;;;;;4980020;28;20305;-88
2024/01/12 06:53:08;;;;;;;1.93;1.60;;;-0.50;97.30;;;;;;4983037;28;20198;-88
2024/01/12 06:55:34;;;;;;;1.47;1.37;;;-0.50;97.30;;;;;;4982039;28;20676;-87
2024/01/12 06:57:59;;;;;;;1.63;1.53;;;-0.50;97.30;;;;;;4978863;28;20469;-88
2024/01/12 07:00:25;;;;;;;3.70;3.43;;;-0.50;97.30;;;;;;4971487;28;20461;-88
2024/01/12 07:02:51;;;;;;;8.03;1.00;;;-0.50;97.30;;;;;;4971546;28;20194;-87
2024/01/12 07:05:17;;;;;;;1.93;1.87;;;-0.50;97.30;;;;;;4978918;28;20429;-89
2024/01/12 07:07:43;;;;;;;1.00;0.90;;;-0.50;97.30;;;;;;4975223;28;20599;-88
2024/01/12 07:10:09;;;;;;;3.03;2.60;;;-0.50;97.30;;;;;;4989797;28;20500;-88
2024/01/12 07:12:35;;;;;;;4.60;1.97;;;-0.50;97.30;;;;;;4989416;28;20221;-89
2024/01/12 07:15:00;;;;;;;10.27;2.50;;;-0.60;97.30;;;;;;4989380;28;20483;-88
2024/01/12 07:17:26;;;;;;;3.63;1.90;;;-0.60;97.30;;;;;;4982303;28;20192;-88
2024/01/12 07:19:51;;;;;;;1.43;1.33;;;-0.60;97.30;;;;;;4973882;28;20205;-89
2024/01/12 07:22:17;;;;;;;1.50;1.40;;;-0.60;97.30;;;;;;4984451;28;20190;-88
2024/01/12 07:24:42;;;;;;;2.33;2.13;;;-0.60;97.30;;;;;;4981385;28;20187;-88
2024/01/12 07:27:08;;;;;;;1.63;1.50;;;-0.60;97.30;;;;;;4982209;28;20220;-88
2024/01/12 07:29:33;;;;;;;1.10;1.00;;;-0.60;97.30;;;;;;4980929;28;20222;-88
2024/01/12 07:31:59;;;;;;;19.33;2.90;;;-0.50;97.30;;;;;;4985891;28;20175;-89
2024/01/12 07:34:24;;;;;;;1.93;1.83;;;-0.50;97.30;;;;;;4985150;28;20193;-88
2024/01/12 07:36:50;;;;;;;1.37;1.30;;;-0.50;97.30;;;;;;4987153;28;20605;-89
2024/01/12 07:39:15;;;;;;;1.57;1.47;;;-0.50;97.30;;;;;;4975840;28;20249;-88
2024/01/12 07:41:42;;;;;;;1.37;1.27;;;-0.50;97.30;;;;;;4971371;28;20182;-88
2024/01/12 07:44:08;;;;;;;22.03;2.50;;;-0.50;97.30;;;;;;4976838;28;20178;-88
2024/01/12 07:46:34;;;;;;;1.33;1.23;;;-0.50;97.30;;;;;;4977495;28;20428;-88
2024/01/12 07:48:59;;;;;;;1.00;0.90;;;-0.50;97.30;;;;;;4974027;28;20921;-89
2024/01/12 07:51:25;;;;;;;2.83;2.20;;;-0.50;97.30;;;;;;4974240;28;20805;-88
2024/01/12 07:53:51;;;;;;;1.13;1.03;;;-0.50;97.30;;;;;;4972637;28;20182;-88
2024/01/12 07:56:17;;;;;;;1.00;0.90;;;-0.40;97.30;;;;;;4983402;28;20488;-88
2024/01/12 07:58:42;;;;;;;2.30;2.10;;;-0.40;97.30;;;;;;4970386;28;20485;-89
2024/01/12 08:01:15;;;;;;;1.43;1.33;;;-0.40;97.30;;;;;;4982883;28;20194;-88
2024/01/12 08:03:42;;;;;;;2.20;1.93;;;-0.40;97.30;;;;;;4978847;28;20265;-88
2024/01/12 08:06:08;;;;;;;4.77;3.07;;;-0.40;97.30;;;;;;4974799;28;20425;-88
2024/01/12 08:08:33;;;;;;;3.40;3.07;;;-0.40;97.30;;;;;;4986890;28;20429;-88
2024/01/12 08:10:59;;;;;;;3.53;1.87;;;-0.40;97.30;;;;;;4958022;28;20568;-89
2024/01/12 08:13:24;;;;;;;4.47;4.17;;;-0.40;97.30;;;;;;4964201;28;20181;-88
2024/01/12 08:15:50;;;;;;;3.60;2.50;;;-0.40;97.30;;;;;;4964311;28;20191;-89
2024/01/12 08:18:16;;;;;;;3.23;1.73;;;-0.40;97.30;;;;;;4955079;28;20184;-88
2024/01/12 08:20:42;;;;;;;1.70;1.67;;;-0.30;97.30;;;;;;4951892;28;20217;-88
2024/01/12 08:23:07;;;;;;;2.53;2.20;;;-0.30;97.30;;;;;;4950664;28;20415;-89
2024/01/12 08:25:32;;;;;;;1.73;1.63;;;-0.30;97.30;;;;;;4957715;28;20194;-88
2024/01/12 08:27:58;;;;;;;3.27;3.07;;;-0.30;97.30;;;;;;4957466;28;20198;-89
2024/01/12 08:30:23;;;;;;;1.33;1.30;;;-0.30;97.30;;;;;;4963415;28;20252;-88
2024/01/12 08:32:49;;;;;;;2.87;1.60;;;-0.30;97.30;;;;;;4959386;28;20221;-89
2024/01/12 08:35:15;;;;;;;2.63;2.23;;;-0.30;97.30;;;;;;4951007;28;20214;-88
2024/01/12 08:37:40;;;;;;;3.37;2.27;;;-0.30;97.30;;;;;;4963953;28;20440;-88
2024/01/12 08:40:06;;;;;;;5.70;2.10;;;-0.20;97.30;;;;;;4962410;28;20512;-88
2024/01/12 08:42:32;;;;;;;3.73;3.53;;;-0.20;97.30;;;;;;4967900;28;20213;-88
2024/01/12 08:44:58;;;;;;;1.37;1.27;;;-0.20;97.30;;;;;;4959476;28;20942;-89
2024/01/12 08:47:23;;;;;;;2.53;2.33;;;-0.20;97.30;;;;;;4956831;28;20202;-88
2024/01/12 08:49:50;;;;;;;1.97;1.87;;;-0.20;97.30;;;;;;4965069;28;20211;-88
2024/01/12 08:52:16;;;;;;;2.60;2.40;;;-0.20;97.30;;;;;;4950864;28;20187;-88
2024/01/12 08:54:43;;;;;;;14.53;3.93;;;-0.20;97.30;;;;;;4963412;28;20900;-88
2024/01/12 08:57:08;;;;;;;2.80;1.90;;;-0.20;97.30;;;;;;4954208;28;20239;-88
2024/01/12 08:59:34;;;;;;;1.73;1.50;;;-0.20;97.30;;;;;;4964890;28;20438;-89
2024/01/12 09:01:59;;;;;;;1.77;1.67;;;-0.10;97.30;;;;;;4961081;28;20282;-89
2024/01/12 09:04:27;;;;;;;2.53;2.33;;;-0.10;97.30;;;;;;4954371;28;20204;-89
2024/01/12 09:06:52;;;;;;;2.07;1.93;;;-0.10;97.30;;;;;;4952364;28;20182;-88
2024/01/12 09:09:18;;;;;;;4.47;2.80;;;-0.10;97.30;;;;;;4967479;28;20492;-88
2024/01/12 09:11:44;;;;;;;2.60;2.40;;;0.00;97.30;;;;;;4976304;28;20370;-88
2024/01/12 09:14:10;;;;;;;14.00;2.70;;;0.00;97.30;;;;;;4982687;28;20656;-89
2024/01/12 09:16:36;;;;;;;1.63;1.53;;;0.00;97.30;;;;;;4970361;28;20417;-89
2024/01/12 09:19:02;;;;;;;2.00;1.90;;;0.00;97.30;;;;;;4975821;28;20203;-89
2024/01/12 09:21:27;;;;;;;1.10;1.00;;;0.00;97.30;;;;;;4971054;28;20660;-89
2024/01/12 09:23:52;;;;;;;1.27;1.17;;;0.00;97.30;;;;;;4966429;28;20434;-89
2024/01/12 09:26:18;;;;;;;8.13;2.93;;;0.00;97.30;;;;;;4975287;28;20229;-88
2024/01/12 09:28:43;;;;;;;3.47;2.50;;;0.00;97.30;;;;;;4983732;28;20214;-88
2024/01/12 09:31:09;;;;;;;2.43;2.23;;;0.10;97.30;;;;;;4969818;28;20174;-89
2024/01/12 09:33:35;;;;;;;2.83;2.63;;;0.10;97.30;;;;;;4978233;28;20178;-89
2024/01/12 09:36:03;;;;;;;4.40;2.33;;;0.10;97.30;;;;;;4980530;28;20249;-88
2024/01/12 09:38:28;;;;;;;3.83;1.83;;;0.10;97.30;;;;;;4982649;28;20178;-88
2024/01/12 09:40:54;;;;;;;10.47;3.63;;;0.20;97.30;;;;;;4980808;28;20942;-89
2024/01/12 09:43:22;;;;;;;6.47;2.63;;;0.20;97.30;;;;;;4988145;28;20455;-89
2024/01/12 09:45:50;;;;;;;2.20;2.00;;;0.20;97.30;;;;;;4979749;28;20183;-89
2024/01/12 09:48:16;;;;;;;6.27;2.40;;;0.20;97.30;;;;;;4982285;28;20704;-90
2024/01/12 09:50:43;;;;;;;2.23;2.03;;;0.20;97.30;;;;;;4986059;28;20478;-89
2024/01/12 09:53:09;;;;;;;4.33;2.70;;;0.10;97.30;;;;;;4987004;28;20178;-90
2024/01/12 09:55:34;;;;;;;4.20;2.50;;;0.20;97.30;;;;;;4980350;28;20568;-89
2024/01/12 09:58:01;;;;;;;1.20;1.10;;;0.20;97.30;;;;;;4973814;28;20517;-89
2024/01/12 10:00:28;;;;;;;0.90;0.80;;;0.20;97.30;;;;;;4978339;28;20288;-89
2024/01/12 10:02:55;;;;;;;3.63;3.43;;;0.30;97.30;;;;;;4984512;28;20506;-90
2024/01/12 10:05:21;;;;;;;2.50;2.13;;;0.30;97.30;;;;;;4977913;28;20432;-90
2024/01/12 10:07:47;;;;;;;1.10;1.00;;;0.30;97.30;;;;;;4981451;28;20568;-89
2024/01/12 10:10:12;;;;;;;1.03;0.93;;;0.30;97.30;;;;;;4975977;28;20567;-89
2024/01/12 10:12:38;;;;;;;6.80;4.87;;;0.40;97.30;;;;;;4973853;28;20260;-90
2024/01/12 10:15:09;;;;;;;3.27;3.07;;;0.40;97.30;;;;;;4976718;28;20261;-89
2024/01/12 10:17:35;;;;;;;2.40;1.90;;;0.40;97.30;;;;;;4976167;28;20205;-89
2024/01/12 10:20:03;;;;;;;7.03;4.97;;;0.40;97.30;;;;;;4978592;28;20453;-89
2024/01/12 10:22:30;;;;;;;5.53;1.50;;;0.30;97.30;;;;;;4979432;28;20436;-89
2024/01/12 10:24:59;;;;;;;3.13;2.93;;;0.30;97.30;;;;;;4972138;28;20433;-89
2024/01/12 10:27:26;;;;;;;5.50;3.70;;;0.30;97.30;;;;;;4971469;28;20422;-89
2024/01/12 10:29:51;;;;;;;4.23;2.90;;;0.40;97.30;;;;;;4972754;28;20476;-89
2024/01/12 10:32:20;;;;;;;5.93;4.83;;;0.40;97.30;;;;;;4981151;28;20417;-89
2024/01/12 10:34:52;;;;;;;2.07;1.93;;;0.40;97.30;;;;;;4981303;28;20178;-90
2024/01/12 10:37:19;;;;;;;2.40;2.20;;;0.40;97.30;;;;;;4967283;28;20417;-90
2024/01/12 10:39:46;;;;;;;15.00;2.37;;;0.40;97.30;;;;;;4977516;28;20735;-90
2024/01/12 10:42:12;;;;;;;2.63;2.47;;;0.40;97.30;;;;;;4977160;28;20418;-90
2024/01/12 10:44:43;;;;;;;1.57;1.47;;;0.40;97.30;;;;;;4971898;28;20508;-90
2024/01/12 10:47:20;;;;;;;5.73;2.07;;;0.30;97.30;;;;;;4976255;28;20432;-90
2024/01/12 10:50:06;;;;;;;2.07;1.93;;;0.30;97.30;;;;;;4971736;28;20560;-90
2024/01/12 10:52:51;;;;;;;2.33;2.13;;;0.30;97.30;;;;;;4973686;28;20459;-90
2024/01/12 10:55:20;;;;;;;4.00;2.60;;;0.30;97.30;;;;;;4975311;28;20415;-90
2024/01/12 10:57:46;;;;;;;2.37;2.17;;;0.30;97.30;;;;;;4972638;28;20421;-90
2024/01/12 11:00:14;;;;;;;1.63;1.57;;;0.30;97.30;;;;;;4979632;28;20585;-88
2024/01/12 11:02:40;;;;;;;1.90;1.80;;;0.40;97.30;;;;;;4973778;28;20509;-90
2024/01/12 11:05:08;;;;;;;7.90;2.37;;;0.30;97.30;;;;;;4981130;28;20418;-90
2024/01/12 11:07:34;;;;;;;3.07;2.87;;;0.30;97.30;;;;;;4976519;28;20797;-91
2024/01/12 11:10:00;;;;;;;3.43;2.60;;;0.30;97.30;;;;;;4971068;28;20542;-91
2024/01/12 11:12:33;;;;;;;3.50;3.30;;;0.30;97.30;;;;;;4976277;28;20450;-90
2024/01/12 11:14:59;;;;;;;4.60;2.60;;;0.30;97.30;;;;;;4969041;28;20410;-91
2024/01/12 11:17:29;;;;;;;2.07;1.93;;;0.30;97.30;;;;;;4975898;28;20786;-91
2024/01/12 11:20:17;;;;;;;5.87;3.23;;;0.30;97.30;;;;;;4976532;28;20448;-90
2024/01/12 11:22:48;;;;;;;3.57;3.07;;;0.30;97.30;;;;;;4971072;28;20422;-90
2024/01/12 11:25:15;;;;;;;3.33;1.60;;;0.30;97.30;;;;;;4975913;28;20434;-91
2024/01/12 11:27:42;;;;;;;5.50;2.67;;;0.30;97.30;;;;;;4971380;28;20429;-90
2024/01/12 11:30:11;;;;;;;40.10;3.53;;;0.40;97.30;;;;;;4970745;28;20553;-90
2024/01/12 11:32:39;;;;;;;5.70;5.40;;;0.40;97.30;;;;;;4970697;28;20425;-90
2024/01/12 11:35:22;;;;;;;2.40;2.20;;;0.30;97.30;;;;;;4972234;28;20426;-92
2024/01/12 11:37:59;;;;;;;3.03;1.97;;;0.30;97.30;;;;;;4976401;28;20418;-91
2024/01/12 11:40:25;;;;;;;3.67;3.47;;;0.40;97.30;;;;;;4979417;28;20441;-90
2024/01/12 11:42:51;;;;;;;2.50;2.30;;;0.30;97.30;;;;;;4975976;28;20422;-91
2024/01/12 11:45:18;;;;;;;2.60;2.10;;;0.30;97.30;;;;;;4975627;28;20457;-91
2024/01/12 11:47:44;;;;;;;1.93;1.83;;;0.30;97.30;;;;;;4975306;28;20475;-91
2024/01/12 11:50:17;;;;;;;4.53;2.57;;;0.30;97.30;;;;;;4975231;28;20551;-91
2024/01/12 11:52:53;;;;;;;7.03;2.90;;;0.30;97.30;;;;;;4972144;28;20881;-90
2024/01/12 11:55:20;;;;;;;2.33;2.13;;;0.40;97.30;;;;;;4970408;28;20444;-91
2024/01/12 11:57:45;;;;;;;1.37;1.10;;;0.30;97.30;;;;;;4975171;28;20425;-91
2024/01/12 12:00:12;;;;;;;3.57;2.00;;;0.40;97.30;;;;;;4974339;28;21003;-91
2024/01/12 12:02:37;;;;;;;4.20;2.53;;;0.40;97.30;;;;;;4970662;28;20641;-91
2024/01/12 12:05:09;;;;;;;8.23;2.50;;;0.30;97.30;;;;;;4970420;28;20430;-91
2024/01/12 12:07:37;;;;;;;1.13;1.10;;;0.30;97.30;;;;;;4970567;28;20192;-91
2024/01/12 12:10:03;;;;;;;1.60;1.50;;;0.30;97.30;;;;;;4969793;28;20482;-91
2024/01/12 12:12:29;;;;;;;4.70;3.90;;;0.40;97.30;;;;;;4970097;28;20418;-90
2024/01/12 12:15:08;;;;;;;3.97;2.10;;;0.40;97.30;;;;;;4970132;28;20430;-92
2024/01/12 12:17:43;;;;;;;1.57;1.47;;;0.30;97.30;;;;;;4970309;28;20272;-91
2024/01/12 12:20:10;;;;;;;2.13;1.97;;;0.30;97.30;;;;;;4970029;28;21066;-92
2024/01/12 12:22:46;;;;;;;9.40;4.00;;;0.40;97.30;;;;;;4970219;28;20465;-91
2024/01/12 12:25:15;;;;;;;3.50;2.23;;;0.40;97.30;;;;;;4970040;28;20418;-91
2024/01/12 12:27:43;;;;;;;1.97;1.87;;;0.40;97.30;;;;;;4970661;28;20418;-91
2024/01/12 12:30:12;;;;;;;3.60;3.40;;;0.40;97.30;;;;;;4970208;28;21002;-91
2024/01/12 12:32:38;;;;;;;1.63;1.53;;;0.40;97.30;;;;;;4970189;28;20433;-91
2024/01/12 12:35:23;;;;;;;1.20;1.10;;;0.40;97.30;;;;;;4970028;28;20945;-91
2024/01/12 12:37:52;;;;;;;2.17;1.90;;;0.40;97.30;;;;;;4970324;28;20939;-92
2024/01/12 12:40:18;;;;;;;3.10;2.90;;;0.40;97.30;;;;;;4970642;28;20503;-91
2024/01/12 12:42:46;;;;;;;3.83;2.13;;;0.40;97.30;;;;;;4970318;28;20425;-91
2024/01/12 12:45:12;;;;;;;2.30;2.10;;;0.30;97.30;;;;;;4970356;28;20940;-92
2024/01/12 12:47:39;;;;;;;1.77;1.40;;;0.40;97.30;;;;;;4971630;28;20812;-93
2024/01/12 12:50:09;;;;;;;1.00;0.90;;;0.40;97.30;;;;;;4978685;28;20484;-94
2024/01/12 12:52:35;;;;;;;1.23;1.13;;;0.40;97.30;;;;;;4996595;28;20437;-94
2024/01/12 12:55:01;;;;;;;1.30;1.20;;;0.40;97.30;;;;;;4985996;28;20453;-92
2024/01/12 12:57:27;;;;;;;1.57;1.53;;;0.40;97.30;;;;;;4970526;28;20430;-93
2024/01/12 12:59:53;;;;;;;4.70;2.30;;;0.40;97.30;;;;;;4971364;28;20201;-90
2024/01/12 13:02:21;;;;;;;11.23;1.93;;;0.40;97.30;;;;;;4971464;28;20433;-92
2024/01/12 13:05:17;;;;;;;1.20;1.10;;;0.40;97.30;;;;;;4971535;28;20437;-91
2024/01/12 13:07:43;;;;;;;2.60;2.40;;;0.30;97.30;;;;;;4999090;23;21044;-70
2024/01/12 13:10:09;;;;;;;1.53;1.43;;;0.30;97.30;;;;;;4971633;28;20492;-69
2024/01/12 13:12:35;;;;;;;2.70;1.70;;;0.30;97.30;;;;;;4964344;28;20206;-70
2024/01/12 13:15:00;;;;;;;2.37;2.17;;;0.30;97.30;;;;;;4956505;28;20484;-70
2024/01/12 13:17:26;;;;;;;1.73;1.63;;;0.30;97.30;;;;;;4959316;28;20178;-70
2024/01/12 13:19:52;;;;;;;3.43;1.60;;;0.30;97.30;;;;;;4965162;28;20266;-69
2024/01/12 13:22:18;;;;;;;1.70;1.33;;;0.30;97.30;;;;;;4962960;28;20450;-70
2024/01/12 13:24:43;;;;;;;1.50;1.40;;;0.30;97.30;;;;;;4952908;28;20426;-70
2024/01/12 13:27:09;;;;;;;1.67;1.53;;;0.30;97.30;;;;;;4960664;28;20601;-70
2024/01/12 13:29:35;;;;;;;2.37;2.17;;;0.30;97.30;;;;;;4957904;28;20214;-70
2024/01/12 13:32:02;;;;;;;1.90;1.53;;;0.30;97.30;;;;;;4951075;28;20211;-70
2024/01/12 13:34:28;;;;;;;1.23;1.13;;;0.40;97.30;;;;;;4953720;28;20183;-70
2024/01/12 13:36:54;;;;;;;7.50;5.17;;;0.40;97.30;;;;;;4955759;28;20652;-70
2024/01/12 13:39:20;;;;;;;1.57;1.47;;;0.40;97.30;;;;;;4955473;28;20195;-70
2024/01/12 13:41:45;;;;;;;1.90;1.80;;;0.40;97.30;;;;;;4954126;28;20444;-69
2024/01/12 13:44:11;;;;;;;1.83;1.73;;;0.30;97.30;;;;;;4956400;28;20274;-70
2024/01/12 13:46:38;;;;;;;1.40;1.30;;;0.40;97.30;;;;;;4958348;28;20592;-70
2024/01/12 13:49:04;;;;;;;2.80;1.20;;;0.40;97.30;;;;;;4969029;28;20305;-70
2024/01/12 13:51:29;;;;;;;1.83;1.73;;;0.30;97.30;;;;;;4964001;28;20530;-71
2024/01/12 13:53:56;;;;;;;1.50;1.40;;;0.30;97.30;;;;;;4956893;28;20191;-70
2024/01/12 13:56:21;;;;;;;2.97;1.50;;;0.30;97.30;;;;;;4953372;28;20183;-70
2024/01/12 13:58:47;;;;;;;1.90;1.77;;;0.30;97.30;;;;;;4968986;28;20476;-69
2024/01/12 14:01:14;;;;;;;5.77;2.67;;;0.30;97.30;;;;;;4956470;28;20505;-70
2024/01/12 14:03:41;;;;;;;1.53;1.43;;;0.30;97.30;;;;;;4962037;28;20640;-70
2024/01/12 14:06:07;;;;;;;1.87;1.77;;;0.30;97.30;;;;;;4954298;28;20422;-70
2024/01/12 14:08:35;;;;;;;33.77;4.20;;;0.30;97.30;;;;;;4959286;28;20466;-70
2024/01/12 14:11:02;;;;;;;1.73;1.60;;;0.40;97.30;;;;;;4950966;28;20474;-70
2024/01/12 14:13:27;;;;;;;1.63;1.53;;;0.40;97.30;;;;;;4951805;28;20927;-70
2024/01/12 14:15:53;;;;;;;1.60;1.50;;;0.40;97.30;;;;;;4957132;28;20437;-70
2024/01/12 14:18:18;;;;;;;1.83;1.77;;;0.40;97.30;;;;;;4961334;28;20175;-70
2024/01/12 14:20:45;;;;;;;1.90;1.80;;;0.40;97.30;;;;;;4951188;28;20203;-69
2024/01/12 14:23:11;;;;;;;1.60;1.50;;;0.40;97.30;;;;;;4967919;28;20200;-69
2024/01/12 14:25:37;;;;;;;2.20;1.77;;;0.40;97.30;;;;;;4959044;28;20571;-69
2024/01/12 14:28:04;;;;;;;1.00;0.90;;;0.40;97.30;;;;;;4959270;28;20427;-69
2024/01/12 14:30:30;;;;;;;7.70;4.27;;;0.40;97.30;;;;;;4951938;28;20732;-69
2024/01/12 14:32:56;;;;;;;1.70;1.60;;;0.40;97.30;;;;;;4953618;28;20418;-69
2024/01/12 14:35:22;;;;;;;1.27;1.17;;;0.40;97.30;;;;;;4950743;28;20419;-70
2024/01/12 14:37:47;;;;;;;6.43;3.50;;;0.40;97.30;;;;;;4954898;28;20423;-69
2024/01/12 14:40:13;;;;;;;1.57;1.47;;;0.40;97.30;;;;;;4954105;28;20187;-68
2024/01/12 14:42:39;;;;;;;4.20;3.80;;;0.40;97.30;;;;;;4955697;28;20412;-69
2024/01/12 14:45:07;;;;;;;1.53;1.43;;;0.40;97.30;;;;;;4951907;28;20179;-69
2024/01/12 14:47:33;;;;;;;1.00;0.90;;;0.40;97.30;;;;;;4950443;28;20427;-69
2024/01/12 14:49:59;;;;;;;3.23;2.13;;;0.40;97.30;;;;;;4952379;28;20521;-69
2024/01/12 14:52:26;;;;;;;1.07;0.97;;;0.40;97.30;;;;;;4953392;28;20328;-69
2024/01/12 14:54:52;;;;;;;1.20;1.13;;;0.40;97.30;;;;;;4951555;28;20477;-69
2024/01/12 14:57:20;;;;;;;1.60;1.50;;;0.40;97.30;;;;;;4951879;28;20477;-69
2024/01/12 14:59:46;;;;;;;1.57;1.47;;;0.50;97.30;;;;;;4962533;28;20438;-69
2024/01/12 15:02:11;;;;;;;1.07;0.97;;;0.50;97.30;;;;;;4948967;28;20455;-69
2024/01/12 15:04:37;;;;;;;1.73;1.63;;;0.50;97.30;;;;;;4955066;28;20485;-69
2024/01/12 15:07:03;;;;;;;4.50;1.57;;;0.50;97.30;;;;;;4952912;28;20584;-69
2024/01/12 15:09:29;;;;;;;1.00;0.90;;;0.40;97.30;;;;;;4952532;28;20656;-69
2024/01/12 15:11:55;;;;;;;1.70;1.60;;;0.50;97.30;;;;;;4955618;28;20194;-69
2024/01/12 15:14:20;;;;;;;1.20;1.10;;;0.40;97.30;;;;;;4952623;28;20419;-69
2024/01/12 15:16:49;;;;;;;2.37;2.17;;;0.40;97.30;;;;;;4955866;28;20186;-69
2024/01/12 15:19:14;;;;;;;1.60;1.50;;;0.50;97.30;;;;;;4957139;28;20265;-70
2024/01/12 15:21:40;;;;;;;6.20;3.77;;;0.40;97.30;;;;;;4959608;28;20536;-69
2024/01/12 15:24:05;;;;;;;2.00;1.90;;;0.40;97.30;;;;;;4961663;28;20223;-69
2024/01/12 15:26:31;;;;;;;1.10;1.00;;;0.40;97.30;;;;;;4954666;28;20536;-69
2024/01/12 15:28:56;;;;;;;1.80;1.70;;;0.50;97.30;;;;;;4953822;28;20719;-70
2024/01/12 15:31:22;;;;;;;1.60;1.50;;;0.40;97.30;;;;;;4958192;28;20200;-69
2024/01/12 15:33:48;;;;;;;2.30;2.10;;;0.40;97.30;;;;;;4950090;28;20187;-69
2024/01/12 15:36:14;;;;;;;3.77;3.00;;;0.40;97.30;;;;;;4949293;28;20481;-71
2024/01/12 15:38:39;;;;;;;1.83;1.73;;;0.40;97.30;;;;;;4949611;29;20189;-70
2024/01/12 15:41:14;;;;;;;2.17;1.70;;;0.40;97.30;;;;;;4949509;28;20206;-70
2024/01/12 15:43:39;;;;;;;6.90;3.53;;;0.40;97.30;;;;;;4952023;28;20257;-70
2024/01/12 15:46:05;;;;;;;3.23;3.03;;;0.40;97.30;;;;;;4951850;28;20911;-70
2024/01/12 15:48:31;;;;;;;5.17;2.23;;;0.40;97.30;;;;;;4953324;28;20194;-69
2024/01/12 15:50:57;;;;;;;4.87;2.87;;;0.40;97.30;;;;;;4948379;29;20607;-70
2024/01/12 15:53:22;;;;;;;2.80;2.47;;;0.40;97.30;;;;;;4950847;28;20182;-70
2024/01/12 15:55:48;;;;;;;12.20;7.27;;;0.40;97.30;;;;;;4951545;28;20804;-70
2024/01/12 15:58:14;;;;;;;3.23;3.03;;;0.40;97.30;;;;;;4952876;28;20179;-69
2024/01/12 16:00:39;;;;;;;7.77;3.13;;;0.40;97.30;;;;;;4953905;28;20198;-69
2024/01/12 16:03:06;;;;;;;1.30;1.20;;;0.40;97.30;;;;;;4950449;28;20183;-70
2024/01/12 16:05:31;;;;;;;2.13;1.37;;;0.40;97.30;;;;;;4949047;28;20194;-70
2024/01/12 16:08:00;;;;;;;4.57;2.50;;;0.40;97.30;;;;;;4952412;28;20828;-70
2024/01/12 16:10:27;;;;;;;3.53;2.87;;;0.40;97.30;;;;;;4952795;28;20230;-70
2024/01/12 16:12:53;;;;;;;3.43;3.23;;;0.40;97.30;;;;;;4950665;28;20422;-70
2024/01/12 16:15:18;;;;;;;2.80;2.60;;;0.40;97.30;;;;;;4952007;28;20427;-70
2024/01/12 16:17:44;;;;;;;7.13;2.87;;;0.40;97.30;;;;;;4950221;28;20218;-70
2024/01/12 16:20:09;;;;;;;8.63;2.40;;;0.50;97.30;;;;;;4951729;28;20191;-70
2024/01/12 16:22:35;;;;;;;2.57;2.37;;;0.50;97.30;;;;;;4955365;28;20191;-70
2024/01/12 16:25:00;;;;;;;1.70;1.47;;;0.50;97.30;;;;;;4951913;28;20202;-70
2024/01/12 16:27:26;;;;;;;12.23;2.23;;;0.50;97.30;;;;;;4947872;28;20187;-70
2024/01/12 16:29:51;;;;;;;9.60;1.90;;;0.50;97.30;;;;;;4951991;28;20229;-70
2024/01/12 16:32:17;;;;;;;1.60;1.50;;;0.60;97.30;;;;;;4950634;28;20234;-68
2024/01/12 16:34:42;;;;;;;3.57;1.60;;;0.60;97.30;;;;;;4951924;28;20179;-71
2024/01/12 16:37:08;;;;;;;2.30;1.90;;;0.60;97.30;;;;;;4951558;28;20186;-72
2024/01/12 16:39:34;;;;;;;7.50;1.93;;;0.60;97.30;;;;;;4948245;28;20266;-70
2024/01/12 16:41:59;;;;;;;3.20;3.00;;;0.70;97.30;;;;;;4950068;28;20206;-70
2024/01/12 16:44:27;;;;;;;2.33;2.13;;;0.70;97.30;;;;;;4952378;29;20434;-69
2024/01/12 16:46:53;;;;;;;2.50;2.20;;;0.60;97.30;;;;;;4952714;28;20643;-70
2024/01/12 16:49:19;;;;;;;5.43;1.77;;;0.60;97.30;;;;;;4956311;28;20458;-69
2024/01/12 16:51:45;;;;;;;1.40;1.30;;;0.60;97.30;;;;;;4953535;28;20453;-70
2024/01/12 16:54:10;;;;;;;3.07;1.70;;;0.60;97.30;;;;;;4954549;28;20599;-69
2024/01/12 16:56:37;;;;;;;2.60;2.40;;;0.80;97.30;;;;;;4954988;28;20219;-70
2024/01/12 16:59:03;;;;;;;7.23;2.77;;;0.80;97.30;;;;;;4954417;28;20226;-69
2024/01/12 17:01:28;;;;;;;3.27;3.07;;;0.70;97.30;;;;;;4953915;28;20454;-68
2024/01/12 17:03:54;;;;;;;3.20;2.97;;;0.70;97.30;;;;;;4954281;28;20474;-68
2024/01/12 17:06:20;;;;;;;3.83;3.60;;;0.60;97.30;;;;;;4957184;28;20277;-69
2024/01/12 17:08:45;;;;;;;2.33;2.13;;;0.60;97.30;;;;;;4952050;29;20195;-69
2024/01/12 17:11:11;;;;;;;2.47;2.30;;;0.60;97.30;;;;;;4955628;28;20201;-70
2024/01/12 17:13:36;;;;;;;4.43;4.13;;;0.60;97.30;;;;;;4950945;28;20183;-69
2024/01/12 17:16:01;;;;;;;3.40;2.63;;;0.60;97.30;;;;;;4952938;28;20685;-70
2024/01/12 17:18:27;;;;;;;3.97;3.77;;;0.60;97.30;;;;;;4951491;28;20230;-69
2024/01/12 17:20:53;;;;;;;1.70;1.60;;;0.50;97.30;;;;;;4951633;28;20258;-69
2024/01/12 17:23:18;;;;;;;1.83;1.73;;;0.50;97.30;;;;;;4952180;28;20191;-69
2024/01/12 17:25:44;;;;;;;1.60;1.50;;;0.50;97.30;;;;;;4951567;28;20261;-68
2024/01/12 17:28:09;;;;;;;3.10;2.90;;;0.50;97.30;;;;;;4951886;28;20233;-69
2024/01/12 17:30:35;;;;;;;2.30;2.10;;;0.50;97.30;;;;;;4952852;28;20234;-68
2024/01/12 17:33:00;;;;;;;2.03;1.90;;;0.50;97.30;;;;;;4955198;28;20175;-68
2024/01/12 17:35:26;;;;;;;1.93;1.83;;;0.50;97.30;;;;;;4949739;28;20188;-69
2024/01/12 17:37:52;;;;;;;1.80;1.70;;;0.50;97.30;;;;;;4951940;28;20488;-70
2024/01/12 17:40:17;;;;;;;2.03;1.80;;;0.50;97.30;;;;;;4953497;28;20435;-69
2024/01/12 17:42:43;;;;;;;1.60;1.50;;;0.50;97.30;;;;;;4950427;29;20234;-69
2024/01/12 17:45:09;;;;;;;2.07;1.93;;;0.50;97.30;;;;;;4952306;29;20187;-71
2024/01/12 17:47:34;;;;;;;1.77;1.50;;;0.50;97.30;;;;;;4953009;28;20270;-68
2024/01/12 17:50:03;;;;;;;3.37;3.03;;;0.50;97.30;;;;;;4953254;28;20295;-69
2024/01/12 17:52:29;;;;;;;2.80;2.60;;;0.50;97.30;;;;;;4955253;28;20500;-69
2024/01/12 17:54:55;;;;;;;1.27;1.20;;;0.50;97.30;;;;;;4950424;28;20892;-70
2024/01/12 17:57:25;;;;;;;1.47;1.37;;;0.50;97.30;;;;;;4953031;28;20269;-68
2024/01/12 17:59:51;;;;;;;4.30;2.87;;;0.40;97.30;;;;;;4951836;29;20884;-68
2024/01/12 18:02:18;;;;;;;2.13;1.97;;;0.40;97.30;;;;;;4952913;28;20533;-68
2024/01/12 18:04:47;;;;;;;3.50;1.33;;;0.40;97.30;;;;;;4952730;28;20433;-68
2024/01/12 18:07:16;;;;;;;1.87;1.77;;;0.40;97.30;;;;;;4951320;28;20537;-68